Time,TemperatureF,DewpointF,PressureIn,WindDirection,WindDirectionDegrees,WindSpeedMPH,WindSpeedGustMPH,Humidity,HourlyPrecipIn,Conditions,Clouds,dailyrainin,SoftwareType,DateUTC
2013-01-23 00:05:00,12.3,-1.0,30.28,WSW,256,1.0,10.0,55,0.00,,,0.00,weatherlink.com 1.10,2013-01-23 05:05:00,
2013-01-23 00:20:00,12.2,-1.0,30.27,West,264,2.0,10.0,56,0.00,,,0.00,weatherlink.com 1.10,2013-01-23 05:20:00,
2013-01-23 00:35:00,12.1,-1.0,30.27,WNW,301,2.0,7.0,57,0.00,,,0.00,weatherlink.com 1.10,2013-01-23 05:35:00,
2013-01-23 00:50:00,11.9,0.0,30.27,WNW,285,0.0,8.0,58,0.00,,,0.00,weatherlink.com 1.10,2013-01-23 05:50:00,
2013-01-23 01:05:00,11.8,0.0,30.27,NW,304,0.0,5.0,59,0.00,,,0.00,weatherlink.com 1.10,2013-01-23 06:05:00,
2013-01-23 01:20:00,11.5,0.0,30.27,West,267,0.0,3.0,60,0.00,,,0.00,weatherlink.com 1.10,2013-01-23 06:20:00,
2013-01-23 01:35:00,11.5,0.0,30.27,NW,311,0.0,3.0,60,0.00,,,0.00,weatherlink.com 1.10,2013-01-23 06:35:00,
2013-01-23 01:50:00,11.5,0.0,30.28,West,259,0.0,4.0,61,0.00,,,0.00,weatherlink.com 1.10,2013-01-23 06:50:00,
2013-01-23 02:05:00,11.3,1.0,30.28,WNW,300,2.0,3.0,62,0.00,,,0.00,weatherlink.com 1.10,2013-01-23 07:05:00,
2013-01-23 02:20:00,11.2,0.0,30.29,WNW,290,0.0,2.0,62,0.00,,,0.00,weatherlink.com 1.10,2013-01-23 07:20:00,
2013-01-23 02:35:00,11.0,1.0,30.28,WSW,255,0.0,2.0,65,0.00,,,0.00,weatherlink.com 1.10,2013-01-23 07:35:00,
2013-01-23 02:51:00,10.4,1.0,30.29,West,276,0.0,1.0,67,0.00,,,0.00,weatherlink.com 1.10,2013-01-23 07:51:00,
2013-01-23 03:06:00,10.1,2.0,30.28,SSW,204,0.0,2.0,70,0.00,,,0.00,weatherlink.com 1.10,2013-01-23 08:06:00,
2013-01-23 03:36:00,10.4,2.0,30.28,WNW,287,0.0,6.0,70,0.00,,,0.00,weatherlink.com 1.10,2013-01-23 08:36:00,
2013-01-23 03:51:00,10.5,2.0,30.28,SSW,208,1.0,4.0,69,0.00,,,0.00,weatherlink.com 1.10,2013-01-23 08:51:00,
2013-01-23 04:06:00,10.3,2.0,30.29,WNW,284,0.0,2.0,69,0.00,,,0.00,weatherlink.com 1.10,2013-01-23 09:06:00,
2013-01-23 04:21:00,10.4,2.0,30.28,WNW,285,1.0,3.0,69,0.00,,,0.00,weatherlink.com 1.10,2013-01-23 09:21:00,
2013-01-23 04:36:00,10.4,2.0,30.29,WSW,255,0.0,2.0,68,0.00,,,0.00,weatherlink.com 1.10,2013-01-23 09:36:00,
2013-01-23 04:51:00,10.5,2.0,30.29,West,277,1.0,6.0,68,0.00,,,0.00,weatherlink.com 1.10,2013-01-23 09:51:00,
2013-01-23 05:06:00,10.4,2.0,30.29,NW,304,0.0,4.0,68,0.00,,,0.00,weatherlink.com 1.10,2013-01-23 10:06:00,
2013-01-23 05:21:00,10.2,2.0,30.28,WSW,249,0.0,4.0,69,0.00,,,0.00,weatherlink.com 1.10,2013-01-23 10:21:00,
2013-01-23 05:36:00,10.0,2.0,30.29,NW,319,1.0,3.0,69,0.00,,,0.00,weatherlink.com 1.10,2013-01-23 10:36:00,
2013-01-23 05:51:00,9.9,2.0,30.29,WNW,293,3.0,4.0,69,0.00,,,0.00,weatherlink.com 1.10,2013-01-23 10:51:00,
2013-01-23 06:07:00,10.0,2.0,30.29,West,277,1.0,4.0,69,0.00,,,0.00,weatherlink.com 1.10,2013-01-23 11:07:00,
2013-01-23 06:22:00,10.0,2.0,30.29,West,264,0.0,2.0,69,0.00,,,0.00,weatherlink.com 1.10,2013-01-23 11:22:00,
2013-01-23 06:37:00,9.9,2.0,30.29,NW,317,0.0,3.0,70,0.00,,,0.00,weatherlink.com 1.10,2013-01-23 11:37:00,
2013-01-23 06:52:00,9.9,2.0,30.29,NW,304,0.0,5.0,70,0.00,,,0.00,weatherlink.com 1.10,2013-01-23 11:52:00,
2013-01-23 07:07:00,9.8,2.0,30.30,WSW,257,1.0,3.0,70,0.00,,,0.00,weatherlink.com 1.10,2013-01-23 12:07:00,
2013-01-23 07:22:00,9.9,2.0,30.30,West,266,0.0,7.0,70,0.00,,,0.00,weatherlink.com 1.10,2013-01-23 12:22:00,
2013-01-23 07:37:00,10.2,2.0,30.30,NW,316,1.0,4.0,70,0.00,,,0.00,weatherlink.com 1.10,2013-01-23 12:37:00,
2013-01-23 07:52:00,10.9,3.0,30.30,West,278,0.0,4.0,69,0.00,,,0.00,weatherlink.com 1.10,2013-01-23 12:52:00,
2013-01-23 08:07:00,11.6,3.0,30.31,WSW,248,0.0,6.0,68,0.00,,,0.00,weatherlink.com 1.10,2013-01-23 13:07:00,
2013-01-23 08:22:00,12.4,3.0,30.31,WNW,282,3.0,7.0,66,0.00,,,0.00,weatherlink.com 1.10,2013-01-23 13:22:00,
2013-01-23 08:37:00,13.3,3.0,30.31,WSW,246,2.0,9.0,64,0.00,,,0.00,weatherlink.com 1.10,2013-01-23 13:37:00,
2013-01-23 08:52:00,13.7,2.0,30.31,West,275,7.0,10.0,61,0.00,,,0.00,weatherlink.com 1.10,2013-01-23 13:52:00,
2013-01-23 09:07:00,14.7,3.0,30.32,SW,233,2.0,8.0,59,0.00,,,0.00,weatherlink.com 1.10,2013-01-23 14:07:00,
2013-01-23 09:23:00,15.1,3.0,30.32,WNW,288,1.0,9.0,59,0.00,,,0.00,weatherlink.com 1.10,2013-01-23 14:23:00,
2013-01-23 09:38:00,15.4,2.0,30.33,West,281,3.0,12.0,56,0.00,,,0.00,weatherlink.com 1.10,2013-01-23 14:38:00,
2013-01-23 09:53:00,15.5,2.0,30.33,WSW,246,10.0,12.0,55,0.00,,,0.00,weatherlink.com 1.10,2013-01-23 14:53:00,
2013-01-23 10:08:00,15.6,2.0,30.33,NW,311,7.0,13.0,54,0.00,,,0.00,weatherlink.com 1.10,2013-01-23 15:08:00,
2013-01-23 10:23:00,15.6,2.0,30.33,NW,314,2.0,11.0,56,0.00,,,0.00,weatherlink.com 1.10,2013-01-23 15:23:00,
2013-01-23 10:38:00,16.3,2.0,30.32,NW,326,2.0,13.0,53,0.00,,,0.00,weatherlink.com 1.10,2013-01-23 15:38:00,
2013-01-23 10:53:00,16.6,1.0,30.32,West,273,3.0,13.0,51,0.00,,,0.00,weatherlink.com 1.10,2013-01-23 15:53:00,
2013-01-23 11:08:00,16.8,1.0,30.31,WSW,253,1.0,10.0,51,0.00,,,0.00,weatherlink.com 1.10,2013-01-23 16:08:00,
2013-01-23 11:23:00,16.8,2.0,30.30,SSE,156,2.0,14.0,52,0.00,,,0.00,weatherlink.com 1.10,2013-01-23 16:23:00,
2013-01-23 11:38:00,16.8,3.0,30.29,WNW,287,3.0,15.0,54,0.00,,,0.00,weatherlink.com 1.10,2013-01-23 16:38:00,
2013-01-23 11:53:00,17.4,2.0,30.28,NW,318,3.0,8.0,50,0.00,,,0.00,weatherlink.com 1.10,2013-01-23 16:53:00,
2013-01-23 12:08:00,17.8,2.0,30.27,NW,317,3.0,8.0,49,0.00,,,0.00,weatherlink.com 1.10,2013-01-23 17:08:00,
2013-01-23 12:23:00,17.4,2.0,30.26,NW,322,2.0,12.0,51,0.00,,,0.00,weatherlink.com 1.10,2013-01-23 17:23:00,
2013-01-23 12:38:00,16.9,2.0,30.25,NW,304,7.0,16.0,51,0.00,,,0.00,weatherlink.com 1.10,2013-01-23 17:38:00,
2013-01-23 12:54:00,17.9,3.0,30.24,WNW,295,3.0,10.0,52,0.00,,,0.00,weatherlink.com 1.10,2013-01-23 17:54:00,
2013-01-23 13:09:00,18.3,3.0,30.25,NW,315,11.0,11.0,52,0.00,,,0.00,weatherlink.com 1.10,2013-01-23 18:09:00,
2013-01-23 13:24:00,18.7,3.0,30.24,NW,309,6.0,11.0,51,0.00,,,0.00,weatherlink.com 1.10,2013-01-23 18:24:00,
2013-01-23 13:39:00,17.9,3.0,30.23,WNW,300,2.0,8.0,52,0.00,,,0.00,weatherlink.com 1.10,2013-01-23 18:39:00,
2013-01-23 13:54:00,19.4,3.0,30.24,West,267,11.0,11.0,49,0.00,,,0.00,weatherlink.com 1.10,2013-01-23 18:54:00,
2013-01-23 14:09:00,20.4,3.0,30.23,West,260,1.0,8.0,47,0.00,,,0.00,weatherlink.com 1.10,2013-01-23 19:09:00,
2013-01-23 14:24:00,18.9,2.0,30.24,West,281,6.0,10.0,48,0.00,,,0.00,weatherlink.com 1.10,2013-01-23 19:24:00,
2013-01-23 14:39:00,20.0,2.0,30.23,West,277,4.0,9.0,46,0.00,,,0.00,weatherlink.com 1.10,2013-01-23 19:39:00,
2013-01-23 14:54:00,19.8,2.0,30.23,NNW,327,8.0,9.0,45,0.00,,,0.00,weatherlink.com 1.10,2013-01-23 19:54:00,
2013-01-23 15:09:00,19.3,2.0,30.23,WNW,300,1.0,10.0,46,0.00,,,0.00,weatherlink.com 1.10,2013-01-23 20:09:00,
2013-01-23 15:24:00,19.2,1.0,30.23,WNW,295,0.0,10.0,45,0.00,,,0.00,weatherlink.com 1.10,2013-01-23 20:24:00,
2013-01-23 15:39:00,18.9,0.0,30.23,West,276,4.0,12.0,44,0.00,,,0.00,weatherlink.com 1.10,2013-01-23 20:39:00,
2013-01-23 15:54:00,18.8,2.0,30.22,NW,309,1.0,10.0,47,0.00,,,0.00,weatherlink.com 1.10,2013-01-23 20:54:00,
2013-01-23 16:10:00,18.6,1.0,30.22,NW,314,5.0,9.0,47,0.00,,,0.00,weatherlink.com 1.10,2013-01-23 21:10:00,
2013-01-23 16:25:00,19.3,1.0,30.22,WNW,282,2.0,12.0,45,0.00,,,0.00,weatherlink.com 1.10,2013-01-23 21:25:00,
2013-01-23 16:40:00,19.3,1.0,30.22,WNW,297,1.0,7.0,45,0.00,,,0.00,weatherlink.com 1.10,2013-01-23 21:40:00,
2013-01-23 16:55:00,18.7,1.0,30.23,West,278,0.0,9.0,46,0.00,,,0.00,weatherlink.com 1.10,2013-01-23 21:55:00,
2013-01-23 17:10:00,18.2,1.0,30.23,WSW,256,2.0,5.0,47,0.00,,,0.00,weatherlink.com 1.10,2013-01-23 22:10:00,
2013-01-23 17:25:00,17.9,1.0,30.23,NW,316,3.0,3.0,48,0.00,,,0.00,weatherlink.com 1.10,2013-01-23 22:25:00,
2013-01-23 17:40:00,17.5,1.0,30.23,West,277,1.0,5.0,48,0.00,,,0.00,weatherlink.com 1.10,2013-01-23 22:40:00,
2013-01-23 17:55:00,17.1,1.0,30.23,NW,322,0.0,1.0,49,0.00,,,0.00,weatherlink.com 1.10,2013-01-23 22:55:00,
2013-01-23 18:10:00,16.2,2.0,30.23,NW,319,0.0,1.0,53,0.00,,,0.00,weatherlink.com 1.10,2013-01-23 23:10:00,
2013-01-23 18:25:00,15.4,2.0,30.23,NW,317,0.0,1.0,55,0.00,,,0.00,weatherlink.com 1.10,2013-01-23 23:25:00,
2013-01-23 18:40:00,15.1,3.0,30.23,NW,318,0.0,1.0,58,0.00,,,0.00,weatherlink.com 1.10,2013-01-23 23:40:00,
2013-01-23 18:55:00,14.3,3.0,30.22,NW,318,0.0,1.0,60,0.00,,,0.00,weatherlink.com 1.10,2013-01-23 23:55:00,
2013-01-23 19:10:00,12.7,1.0,30.22,NW,318,0.0,0.0,60,0.00,,,0.00,weatherlink.com 1.10,2013-01-24 00:10:00,
2013-01-23 19:25:00,13.2,1.0,30.22,NW,318,0.0,1.0,58,0.00,,,0.00,weatherlink.com 1.10,2013-01-24 00:25:00,
2013-01-23 19:40:00,12.9,1.0,30.21,NW,317,0.0,1.0,60,0.00,,,0.00,weatherlink.com 1.10,2013-01-24 00:40:00,
2013-01-23 19:56:00,13.3,1.0,30.21,NW,318,0.0,1.0,57,0.00,,,0.00,weatherlink.com 1.10,2013-01-24 00:56:00,
2013-01-23 20:11:00,12.2,1.0,30.21,NW,318,1.0,1.0,61,0.00,,,0.00,weatherlink.com 1.10,2013-01-24 01:11:00,
2013-01-23 20:25:00,12.0,0.0,30.22,NW,317,0.0,1.0,60,0.00,,,0.00,weatherlink.com 1.10,2013-01-24 01:25:00,
2013-01-23 20:41:00,12.1,1.0,30.21,SW,233,0.0,1.0,62,0.00,,,0.00,weatherlink.com 1.10,2013-01-24 01:41:00,
2013-01-23 20:56:00,11.5,2.0,30.22,WNW,295,0.0,1.0,65,0.00,,,0.00,weatherlink.com 1.10,2013-01-24 01:56:00,
2013-01-23 21:11:00,11.9,1.0,30.22,NW,316,0.0,1.0,63,0.00,,,0.00,weatherlink.com 1.10,2013-01-24 02:11:00,
2013-01-23 21:26:00,12.9,2.0,30.21,WNW,282,0.0,1.0,61,0.00,,,0.00,weatherlink.com 1.10,2013-01-24 02:26:00,
2013-01-23 21:41:00,13.7,3.0,30.20,NNW,335,2.0,3.0,62,0.00,,,0.00,weatherlink.com 1.10,2013-01-24 02:41:00,
2013-01-23 21:56:00,14.2,2.0,30.21,NNW,347,0.0,3.0,59,0.00,,,0.00,weatherlink.com 1.10,2013-01-24 02:56:00,
2013-01-23 22:11:00,13.9,3.0,30.22,WSW,243,0.0,1.0,63,0.00,,,0.00,weatherlink.com 1.10,2013-01-24 03:11:00,
2013-01-23 22:26:00,13.3,2.0,30.22,WSW,243,0.0,1.0,62,0.00,,,0.00,weatherlink.com 1.10,2013-01-24 03:26:00,
2013-01-23 22:41:00,12.9,2.0,30.22,WSW,243,0.0,1.0,62,0.00,,,0.00,weatherlink.com 1.10,2013-01-24 03:41:00,
2013-01-23 22:57:00,11.8,5.0,30.21,SSE,153,0.0,1.0,74,0.00,,,0.00,weatherlink.com 1.10,2013-01-24 03:57:00,
2013-01-23 23:11:00,11.4,5.0,30.20,SSE,152,0.0,0.0,75,0.00,,,0.00,weatherlink.com 1.10,2013-01-24 04:11:00,
2013-01-23 23:27:00,11.8,5.0,30.20,SSE,153,0.0,0.0,74,0.00,,,0.00,weatherlink.com 1.10,2013-01-24 04:27:00,
2013-01-23 23:42:00,12.1,6.0,30.19,SSE,153,0.0,0.0,75,0.00,,,0.00,weatherlink.com 1.10,2013-01-24 04:42:00,
2013-01-23 23:56:00,12.5,6.0,30.19,SSE,158,0.0,1.0,74,0.00,,,0.00,weatherlink.com 1.10,2013-01-24 04:56:00,